sensor_id;sensor_type;location;lat;lon;timestamp;temperature;humidity
17827;DHT22;9038;48.208;16.308;2022-10-31T00:00:51;13.30;84.90
17827;DHT22;9038;48.208;16.308;2022-10-31T00:02:53;13.40;84.40
17827;DHT22;9038;48.208;16.308;2022-10-31T00:04:55;13.40;84.40
17827;DHT22;9038;48.208;16.308;2022-10-31T00:06:57;13.50;84.20
17827;DHT22;9038;48.208;16.308;2022-10-31T00:09:00;13.50;83.30
17827;DHT22;9038;48.208;16.308;2022-10-31T00:11:02;13.40;83.40
17827;DHT22;9038;48.208;16.308;2022-10-31T00:13:06;13.40;83.50
17827;DHT22;9038;48.208;16.308;2022-10-31T00:15:08;13.40;83.80
17827;DHT22;9038;48.208;16.308;2022-10-31T00:17:10;13.40;83.40
17827;DHT22;9038;48.208;16.308;2022-10-31T00:19:12;13.50;83.50
17827;DHT22;9038;48.208;16.308;2022-10-31T00:21:14;13.50;83.40
17827;DHT22;9038;48.208;16.308;2022-10-31T00:23:16;13.60;83.60
17827;DHT22;9038;48.208;16.308;2022-10-31T00:25:18;13.70;83.30
17827;DHT22;9038;48.208;16.308;2022-10-31T00:27:21;13.70;83.10
17827;DHT22;9038;48.208;16.308;2022-10-31T00:29:24;13.70;82.90
17827;DHT22;9038;48.208;16.308;2022-10-31T00:31:26;13.80;82.60
17827;DHT22;9038;48.208;16.308;2022-10-31T00:33:28;13.80;82.60
17827;DHT22;9038;48.208;16.308;2022-10-31T00:35:30;13.80;82.60
17827;DHT22;9038;48.208;16.308;2022-10-31T00:37:32;13.80;82.60
17827;DHT22;9038;48.208;16.308;2022-10-31T00:39:34;13.80;82.40
17827;DHT22;9038;48.208;16.308;2022-10-31T00:41:36;13.80;82.40
17827;DHT22;9038;48.208;16.308;2022-10-31T00:43:38;13.80;82.50
17827;DHT22;9038;48.208;16.308;2022-10-31T00:45:42;13.90;82.30
17827;DHT22;9038;48.208;16.308;2022-10-31T00:47:44;13.90;81.80
17827;DHT22;9038;48.208;16.308;2022-10-31T00:49:46;13.80;81.90
17827;DHT22;9038;48.208;16.308;2022-10-31T00:51:48;13.80;82.00
17827;DHT22;9038;48.208;16.308;2022-10-31T00:53:52;13.80;82.20
17827;DHT22;9038;48.208;16.308;2022-10-31T00:55:54;13.80;81.80
17827;DHT22;9038;48.208;16.308;2022-10-31T00:57:56;13.60;81.90
17827;DHT22;9038;48.208;16.308;2022-10-31T00:59:58;13.60;82.40
17827;DHT22;9038;48.208;16.308;2022-10-31T01:02:01;13.60;82.60
17827;DHT22;9038;48.208;16.308;2022-10-31T01:04:04;13.50;82.40
17827;DHT22;9038;48.208;16.308;2022-10-31T01:06:08;13.40;82.90
17827;DHT22;9038;48.208;16.308;2022-10-31T01:08:10;13.40;83.30
17827;DHT22;9038;48.208;16.308;2022-10-31T01:10:12;13.40;83.50
17827;DHT22;9038;48.208;16.308;2022-10-31T01:12:15;13.40;83.70
17827;DHT22;9038;48.208;16.308;2022-10-31T01:14:18;13.40;83.80
17827;DHT22;9038;48.208;16.308;2022-10-31T01:16:23;13.40;83.50
17827;DHT22;9038;48.208;16.308;2022-10-31T01:18:27;13.50;83.50
17827;DHT22;9038;48.208;16.308;2022-10-31T01:20:29;13.50;83.10
17827;DHT22;9038;48.208;16.308;2022-10-31T01:22:31;13.60;83.30
17827;DHT22;9038;48.208;16.308;2022-10-31T01:24:34;13.60;83.20
17827;DHT22;9038;48.208;16.308;2022-10-31T01:26:36;13.70;83.10
17827;DHT22;9038;48.208;16.308;2022-10-31T01:28:40;13.70;83.20
17827;DHT22;9038;48.208;16.308;2022-10-31T01:30:44;13.80;82.80
17827;DHT22;9038;48.208;16.308;2022-10-31T01:32:46;13.80;83.10
17827;DHT22;9038;48.208;16.308;2022-10-31T01:34:49;13.80;83.10
17827;DHT22;9038;48.208;16.308;2022-10-31T01:36:51;13.80;82.70
17827;DHT22;9038;48.208;16.308;2022-10-31T01:38:56;13.80;82.80
17827;DHT22;9038;48.208;16.308;2022-10-31T01:40:58;13.80;82.70
17827;DHT22;9038;48.208;16.308;2022-10-31T01:43:00;13.80;82.60
17827;DHT22;9038;48.208;16.308;2022-10-31T01:45:03;13.90;82.30
17827;DHT22;9038;48.208;16.308;2022-10-31T01:47:08;13.90;82.00
17827;DHT22;9038;48.208;16.308;2022-10-31T01:49:16;13.80;81.60
17827;DHT22;9038;48.208;16.308;2022-10-31T01:51:25;13.90;81.70
17827;DHT22;9038;48.208;16.308;2022-10-31T01:53:27;13.90;81.60
17827;DHT22;9038;48.208;16.308;2022-10-31T01:55:32;13.90;81.90
17827;DHT22;9038;48.208;16.308;2022-10-31T01:57:37;13.90;82.00
17827;DHT22;9038;48.208;16.308;2022-10-31T01:59:42;13.90;82.00
17827;DHT22;9038;48.208;16.308;2022-10-31T02:01:46;13.90;81.60
17827;DHT22;9038;48.208;16.308;2022-10-31T02:03:49;13.90;81.60
17827;DHT22;9038;48.208;16.308;2022-10-31T02:05:52;13.90;81.20
17827;DHT22;9038;48.208;16.308;2022-10-31T02:07:59;13.90;81.10
17827;DHT22;9038;48.208;16.308;2022-10-31T02:10:05;13.90;81.00
17827;DHT22;9038;48.208;16.308;2022-10-31T02:12:09;13.90;81.00
17827;DHT22;9038;48.208;16.308;2022-10-31T02:14:11;13.90;81.10
17827;DHT22;9038;48.208;16.308;2022-10-31T02:16:13;13.90;81.30
17827;DHT22;9038;48.208;16.308;2022-10-31T02:18:16;13.90;81.50
17827;DHT22;9038;48.208;16.308;2022-10-31T02:20:21;13.90;81.30
17827;DHT22;9038;48.208;16.308;2022-10-31T02:22:27;13.90;81.20
17827;DHT22;9038;48.208;16.308;2022-10-31T02:24:58;13.90;81.00
17827;DHT22;9038;48.208;16.308;2022-10-31T02:27:40;14.00;80.90
17827;DHT22;9038;48.208;16.308;2022-10-31T02:30:05;13.90;80.70
17827;DHT22;9038;48.208;16.308;2022-10-31T02:32:13;13.90;80.70
17827;DHT22;9038;48.208;16.308;2022-10-31T02:34:22;13.90;80.80
17827;DHT22;9038;48.208;16.308;2022-10-31T02:36:31;13.90;80.80
17827;DHT22;9038;48.208;16.308;2022-10-31T02:38:47;13.90;80.80
17827;DHT22;9038;48.208;16.308;2022-10-31T02:40:56;13.90;81.50
17827;DHT22;9038;48.208;16.308;2022-10-31T02:43:06;13.90;80.70
17827;DHT22;9038;48.208;16.308;2022-10-31T02:45:15;13.80;80.60
17827;DHT22;9038;48.208;16.308;2022-10-31T02:47:25;13.70;80.80
17827;DHT22;9038;48.208;16.308;2022-10-31T02:49:35;13.70;80.50
17827;DHT22;9038;48.208;16.308;2022-10-31T02:51:39;13.60;80.90
17827;DHT22;9038;48.208;16.308;2022-10-31T02:53:41;13.60;80.60
17827;DHT22;9038;48.208;16.308;2022-10-31T02:55:56;13.40;80.70
17827;DHT22;9038;48.208;16.308;2022-10-31T02:58:01;13.40;81.30
17827;DHT22;9038;48.208;16.308;2022-10-31T03:00:05;13.30;80.90
17827;DHT22;9038;48.208;16.308;2022-10-31T03:02:45;13.20;81.50
17827;DHT22;9038;48.208;16.308;2022-10-31T03:05:01;13.20;81.70
17827;DHT22;9038;48.208;16.308;2022-10-31T03:07:13;13.10;81.90
17827;DHT22;9038;48.208;16.308;2022-10-31T03:09:23;13.10;82.00
17827;DHT22;9038;48.208;16.308;2022-10-31T03:11:30;13.10;81.90
17827;DHT22;9038;48.208;16.308;2022-10-31T03:13:38;13.10;81.90
17827;DHT22;9038;48.208;16.308;2022-10-31T03:15:44;13.10;81.90
17827;DHT22;9038;48.208;16.308;2022-10-31T03:17:53;13.10;81.90
17827;DHT22;9038;48.208;16.308;2022-10-31T03:19:58;13.20;82.00
17827;DHT22;9038;48.208;16.308;2022-10-31T03:22:05;13.20;81.60
17827;DHT22;9038;48.208;16.308;2022-10-31T03:24:08;13.20;81.40
17827;DHT22;9038;48.208;16.308;2022-10-31T03:26:12;13.10;81.70
17827;DHT22;9038;48.208;16.308;2022-10-31T03:28:17;13.10;81.60
17827;DHT22;9038;48.208;16.308;2022-10-31T03:30:20;13.10;81.90
17827;DHT22;9038;48.208;16.308;2022-10-31T03:32:25;13.10;81.90
17827;DHT22;9038;48.208;16.308;2022-10-31T03:34:30;13.00;81.40
17827;DHT22;9038;48.208;16.308;2022-10-31T03:36:34;12.90;81.70
17827;DHT22;9038;48.208;16.308;2022-10-31T03:38:37;12.90;81.90
17827;DHT22;9038;48.208;16.308;2022-10-31T03:40:42;12.80;82.10
17827;DHT22;9038;48.208;16.308;2022-10-31T03:42:51;12.80;82.30
17827;DHT22;9038;48.208;16.308;2022-10-31T03:44:56;12.70;82.50
17827;DHT22;9038;48.208;16.308;2022-10-31T03:46:59;12.80;82.60
17827;DHT22;9038;48.208;16.308;2022-10-31T03:49:03;12.80;82.40
17827;DHT22;9038;48.208;16.308;2022-10-31T03:51:12;12.80;82.70
17827;DHT22;9038;48.208;16.308;2022-10-31T03:53:20;12.80;82.30
17827;DHT22;9038;48.208;16.308;2022-10-31T03:55:28;12.80;82.10
17827;DHT22;9038;48.208;16.308;2022-10-31T03:57:35;12.70;82.70
17827;DHT22;9038;48.208;16.308;2022-10-31T03:59:42;12.60;82.30
17827;DHT22;9038;48.208;16.308;2022-10-31T04:01:49;12.70;82.60
17827;DHT22;9038;48.208;16.308;2022-10-31T04:03:53;12.70;82.60
17827;DHT22;9038;48.208;16.308;2022-10-31T04:05:58;12.70;82.20
17827;DHT22;9038;48.208;16.308;2022-10-31T04:08:07;12.60;82.40
17827;DHT22;9038;48.208;16.308;2022-10-31T04:10:13;12.60;82.40
17827;DHT22;9038;48.208;16.308;2022-10-31T04:12:16;12.60;82.50
17827;DHT22;9038;48.208;16.308;2022-10-31T04:14:19;12.60;82.50
17827;DHT22;9038;48.208;16.308;2022-10-31T04:16:22;12.70;82.20
17827;DHT22;9038;48.208;16.308;2022-10-31T04:18:25;12.60;82.40
17827;DHT22;9038;48.208;16.308;2022-10-31T04:20:31;12.60;82.10
17827;DHT22;9038;48.208;16.308;2022-10-31T04:22:33;12.60;82.00
17827;DHT22;9038;48.208;16.308;2022-10-31T04:24:38;12.60;82.10
17827;DHT22;9038;48.208;16.308;2022-10-31T04:26:41;12.70;82.30
17827;DHT22;9038;48.208;16.308;2022-10-31T04:28:42;12.60;81.90
17827;DHT22;9038;48.208;16.308;2022-10-31T04:30:44;12.60;81.90
17827;DHT22;9038;48.208;16.308;2022-10-31T04:32:47;12.70;82.40
17827;DHT22;9038;48.208;16.308;2022-10-31T04:34:48;12.70;82.10
17827;DHT22;9038;48.208;16.308;2022-10-31T04:36:50;12.80;82.60
17827;DHT22;9038;48.208;16.308;2022-10-31T04:38:52;12.80;81.60
17827;DHT22;9038;48.208;16.308;2022-10-31T04:40:56;12.90;81.40
17827;DHT22;9038;48.208;16.308;2022-10-31T04:42:58;12.90;81.20
17827;DHT22;9038;48.208;16.308;2022-10-31T04:45:00;12.80;81.20
17827;DHT22;9038;48.208;16.308;2022-10-31T04:47:01;12.90;81.60
17827;DHT22;9038;48.208;16.308;2022-10-31T04:49:03;12.90;81.30
17827;DHT22;9038;48.208;16.308;2022-10-31T04:51:05;12.90;81.10
17827;DHT22;9038;48.208;16.308;2022-10-31T04:53:07;12.90;81.10
17827;DHT22;9038;48.208;16.308;2022-10-31T04:55:10;12.90;80.90
17827;DHT22;9038;48.208;16.308;2022-10-31T04:57:14;12.90;81.30
17827;DHT22;9038;48.208;16.308;2022-10-31T04:59:19;12.90;80.90
17827;DHT22;9038;48.208;16.308;2022-10-31T05:01:21;12.90;80.60
17827;DHT22;9038;48.208;16.308;2022-10-31T05:03:23;12.90;80.70
17827;DHT22;9038;48.208;16.308;2022-10-31T05:05:27;12.90;80.70
17827;DHT22;9038;48.208;16.308;2022-10-31T05:07:29;12.90;81.00
17827;DHT22;9038;48.208;16.308;2022-10-31T05:09:31;12.90;81.00
17827;DHT22;9038;48.208;16.308;2022-10-31T05:11:32;12.90;80.90
17827;DHT22;9038;48.208;16.308;2022-10-31T05:13:36;12.90;81.00
17827;DHT22;9038;48.208;16.308;2022-10-31T05:15:38;12.90;81.20
17827;DHT22;9038;48.208;16.308;2022-10-31T05:17:40;12.80;81.30
17827;DHT22;9038;48.208;16.308;2022-10-31T05:19:42;12.90;81.30
17827;DHT22;9038;48.208;16.308;2022-10-31T05:21:43;12.80;81.20
17827;DHT22;9038;48.208;16.308;2022-10-31T05:23:45;12.90;81.30
17827;DHT22;9038;48.208;16.308;2022-10-31T05:25:47;12.90;81.20
17827;DHT22;9038;48.208;16.308;2022-10-31T05:27:51;13.00;81.30
17827;DHT22;9038;48.208;16.308;2022-10-31T05:29:54;13.00;81.50
17827;DHT22;9038;48.208;16.308;2022-10-31T05:31:56;13.00;81.10
17827;DHT22;9038;48.208;16.308;2022-10-31T05:33:58;13.00;81.40
17827;DHT22;9038;48.208;16.308;2022-10-31T05:36:00;13.10;81.50
17827;DHT22;9038;48.208;16.308;2022-10-31T05:38:02;13.10;81.50
17827;DHT22;9038;48.208;16.308;2022-10-31T05:40:06;13.10;80.90
17827;DHT22;9038;48.208;16.308;2022-10-31T05:42:09;13.10;81.30
17827;DHT22;9038;48.208;16.308;2022-10-31T05:44:11;13.10;81.10
17827;DHT22;9038;48.208;16.308;2022-10-31T05:46:14;13.20;81.40
17827;DHT22;9038;48.208;16.308;2022-10-31T05:48:16;13.20;81.10
17827;DHT22;9038;48.208;16.308;2022-10-31T05:50:18;13.10;81.00
17827;DHT22;9038;48.208;16.308;2022-10-31T05:52:20;13.10;80.90
17827;DHT22;9038;48.208;16.308;2022-10-31T05:54:21;13.10;81.00
17827;DHT22;9038;48.208;16.308;2022-10-31T05:56:23;13.10;80.80
17827;DHT22;9038;48.208;16.308;2022-10-31T05:58:25;13.10;80.80
17827;DHT22;9038;48.208;16.308;2022-10-31T06:00:28;13.10;80.50
17827;DHT22;9038;48.208;16.308;2022-10-31T06:02:32;13.10;80.60
17827;DHT22;9038;48.208;16.308;2022-10-31T06:04:41;13.10;80.60
17827;DHT22;9038;48.208;16.308;2022-10-31T06:06:43;13.00;80.60
17827;DHT22;9038;48.208;16.308;2022-10-31T06:08:45;13.00;80.70
17827;DHT22;9038;48.208;16.308;2022-10-31T06:10:47;13.00;80.90
17827;DHT22;9038;48.208;16.308;2022-10-31T06:12:49;13.00;80.80
17827;DHT22;9038;48.208;16.308;2022-10-31T06:14:51;13.00;81.20
17827;DHT22;9038;48.208;16.308;2022-10-31T06:16:54;13.10;81.10
17827;DHT22;9038;48.208;16.308;2022-10-31T06:18:57;13.20;81.80
17827;DHT22;9038;48.208;16.308;2022-10-31T06:20:59;13.20;81.10
17827;DHT22;9038;48.208;16.308;2022-10-31T06:23:01;13.20;81.20
17827;DHT22;9038;48.208;16.308;2022-10-31T06:25:04;13.20;81.30
17827;DHT22;9038;48.208;16.308;2022-10-31T06:27:06;13.30;81.10
17827;DHT22;9038;48.208;16.308;2022-10-31T06:29:08;13.30;80.90
17827;DHT22;9038;48.208;16.308;2022-10-31T06:31:10;13.40;81.00
17827;DHT22;9038;48.208;16.308;2022-10-31T06:33:12;13.40;80.60
17827;DHT22;9038;48.208;16.308;2022-10-31T06:35:15;13.40;80.90
17827;DHT22;9038;48.208;16.308;2022-10-31T06:37:17;13.40;80.60
17827;DHT22;9038;48.208;16.308;2022-10-31T06:39:19;13.40;80.80
17827;DHT22;9038;48.208;16.308;2022-10-31T06:41:21;13.40;80.50
17827;DHT22;9038;48.208;16.308;2022-10-31T06:43:23;13.50;81.20
17827;DHT22;9038;48.208;16.308;2022-10-31T06:45:25;13.50;80.80
17827;DHT22;9038;48.208;16.308;2022-10-31T06:47:27;13.60;80.90
17827;DHT22;9038;48.208;16.308;2022-10-31T06:49:29;13.60;80.60
17827;DHT22;9038;48.208;16.308;2022-10-31T06:51:32;13.70;80.80
17827;DHT22;9038;48.208;16.308;2022-10-31T06:53:34;13.70;80.50
17827;DHT22;9038;48.208;16.308;2022-10-31T06:55:36;13.70;80.20
17827;DHT22;9038;48.208;16.308;2022-10-31T06:57:38;13.70;80.10
17827;DHT22;9038;48.208;16.308;2022-10-31T06:59:40;13.80;80.00
17827;DHT22;9038;48.208;16.308;2022-10-31T07:01:42;13.80;79.70
17827;DHT22;9038;48.208;16.308;2022-10-31T07:03:44;13.80;79.70
17827;DHT22;9038;48.208;16.308;2022-10-31T07:05:46;13.80;79.60
17827;DHT22;9038;48.208;16.308;2022-10-31T07:07:52;13.90;79.00
17827;DHT22;9038;48.208;16.308;2022-10-31T07:09:54;13.90;78.90
17827;DHT22;9038;48.208;16.308;2022-10-31T07:11:56;13.90;78.80
17827;DHT22;9038;48.208;16.308;2022-10-31T07:13:57;13.90;78.80
17827;DHT22;9038;48.208;16.308;2022-10-31T07:16:01;13.90;79.20
17827;DHT22;9038;48.208;16.308;2022-10-31T07:18:05;13.90;78.90
17827;DHT22;9038;48.208;16.308;2022-10-31T07:20:08;13.90;78.50
17827;DHT22;9038;48.208;16.308;2022-10-31T07:22:10;13.90;78.80
17827;DHT22;9038;48.208;16.308;2022-10-31T07:24:13;13.80;79.00
17827;DHT22;9038;48.208;16.308;2022-10-31T07:26:15;13.70;79.10
17827;DHT22;9038;48.208;16.308;2022-10-31T07:28:17;13.70;79.60
17827;DHT22;9038;48.208;16.308;2022-10-31T07:30:19;13.70;80.00
17827;DHT22;9038;48.208;16.308;2022-10-31T07:32:21;13.80;80.00
17827;DHT22;9038;48.208;16.308;2022-10-31T07:34:23;13.80;80.70
17827;DHT22;9038;48.208;16.308;2022-10-31T07:36:25;13.90;79.50
17827;DHT22;9038;48.208;16.308;2022-10-31T07:38:27;13.90;79.80
17827;DHT22;9038;48.208;16.308;2022-10-31T07:40:30;13.90;79.50
17827;DHT22;9038;48.208;16.308;2022-10-31T07:42:34;14.00;78.90
17827;DHT22;9038;48.208;16.308;2022-10-31T07:44:37;14.10;78.80
17827;DHT22;9038;48.208;16.308;2022-10-31T07:46:39;14.20;78.50
17827;DHT22;9038;48.208;16.308;2022-10-31T07:48:41;14.30;78.70
17827;DHT22;9038;48.208;16.308;2022-10-31T07:50:43;14.40;77.80
17827;DHT22;9038;48.208;16.308;2022-10-31T07:52:45;14.60;77.90
17827;DHT22;9038;48.208;16.308;2022-10-31T07:54:47;14.60;77.50
17827;DHT22;9038;48.208;16.308;2022-10-31T07:56:50;14.60;77.40
17827;DHT22;9038;48.208;16.308;2022-10-31T07:58:52;14.60;77.00
17827;DHT22;9038;48.208;16.308;2022-10-31T08:00:54;14.60;77.30
17827;DHT22;9038;48.208;16.308;2022-10-31T08:02:59;14.70;77.00
17827;DHT22;9038;48.208;16.308;2022-10-31T08:05:02;14.60;76.90
17827;DHT22;9038;48.208;16.308;2022-10-31T08:07:04;14.70;76.80
17827;DHT22;9038;48.208;16.308;2022-10-31T08:09:05;14.60;76.60
17827;DHT22;9038;48.208;16.308;2022-10-31T08:11:07;14.50;76.80
17827;DHT22;9038;48.208;16.308;2022-10-31T08:13:13;14.50;77.30
17827;DHT22;9038;48.208;16.308;2022-10-31T08:15:15;14.50;77.40
17827;DHT22;9038;48.208;16.308;2022-10-31T08:17:17;14.40;77.30
17827;DHT22;9038;48.208;16.308;2022-10-31T08:19:19;14.40;77.30
17827;DHT22;9038;48.208;16.308;2022-10-31T08:21:21;14.40;77.70
17827;DHT22;9038;48.208;16.308;2022-10-31T08:23:23;14.40;77.30
17827;DHT22;9038;48.208;16.308;2022-10-31T08:25:27;14.30;77.90
17827;DHT22;9038;48.208;16.308;2022-10-31T08:27:29;14.40;78.00
17827;DHT22;9038;48.208;16.308;2022-10-31T08:29:32;14.30;77.90
17827;DHT22;9038;48.208;16.308;2022-10-31T08:31:35;14.40;78.20
17827;DHT22;9038;48.208;16.308;2022-10-31T08:33:37;14.40;78.10
17827;DHT22;9038;48.208;16.308;2022-10-31T08:35:39;14.40;78.10
17827;DHT22;9038;48.208;16.308;2022-10-31T08:37:41;14.50;77.50
17827;DHT22;9038;48.208;16.308;2022-10-31T08:39:43;14.40;77.40
17827;DHT22;9038;48.208;16.308;2022-10-31T08:41:45;14.40;77.40
17827;DHT22;9038;48.208;16.308;2022-10-31T08:43:47;14.40;77.60
17827;DHT22;9038;48.208;16.308;2022-10-31T08:45:50;14.40;77.90
17827;DHT22;9038;48.208;16.308;2022-10-31T08:47:59;14.50;77.40
17827;DHT22;9038;48.208;16.308;2022-10-31T08:50:01;14.50;77.40
17827;DHT22;9038;48.208;16.308;2022-10-31T08:52:03;14.50;77.30
17827;DHT22;9038;48.208;16.308;2022-10-31T08:54:05;14.50;77.40
17827;DHT22;9038;48.208;16.308;2022-10-31T08:56:07;14.60;77.50
17827;DHT22;9038;48.208;16.308;2022-10-31T08:58:12;14.60;77.10
17827;DHT22;9038;48.208;16.308;2022-10-31T09:00:15;14.60;76.90
17827;DHT22;9038;48.208;16.308;2022-10-31T09:02:18;14.60;77.00
17827;DHT22;9038;48.208;16.308;2022-10-31T09:04:20;14.60;77.30
17827;DHT22;9038;48.208;16.308;2022-10-31T09:06:22;14.70;77.20
17827;DHT22;9038;48.208;16.308;2022-10-31T09:08:24;14.80;77.00
17827;DHT22;9038;48.208;16.308;2022-10-31T09:10:27;14.90;76.70
17827;DHT22;9038;48.208;16.308;2022-10-31T09:12:29;14.90;76.60
17827;DHT22;9038;48.208;16.308;2022-10-31T09:14:31;14.90;76.70
17827;DHT22;9038;48.208;16.308;2022-10-31T09:16:33;15.00;76.50
17827;DHT22;9038;48.208;16.308;2022-10-31T09:18:36;15.00;76.00
17827;DHT22;9038;48.208;16.308;2022-10-31T09:20:40;15.00;75.80
17827;DHT22;9038;48.208;16.308;2022-10-31T09:22:42;15.00;75.60
17827;DHT22;9038;48.208;16.308;2022-10-31T09:24:44;15.00;75.60
17827;DHT22;9038;48.208;16.308;2022-10-31T09:26:46;15.00;75.90
17827;DHT22;9038;48.208;16.308;2022-10-31T09:28:48;15.00;75.60
17827;DHT22;9038;48.208;16.308;2022-10-31T09:30:52;15.10;75.80
17827;DHT22;9038;48.208;16.308;2022-10-31T09:32:55;15.10;75.60
17827;DHT22;9038;48.208;16.308;2022-10-31T09:34:59;15.10;75.70
17827;DHT22;9038;48.208;16.308;2022-10-31T09:37:01;15.10;75.70
17827;DHT22;9038;48.208;16.308;2022-10-31T09:39:03;15.10;75.40
17827;DHT22;9038;48.208;16.308;2022-10-31T09:41:12;15.20;75.80
17827;DHT22;9038;48.208;16.308;2022-10-31T09:43:22;15.20;75.10
17827;DHT22;9038;48.208;16.308;2022-10-31T09:45:29;15.20;75.00
17827;DHT22;9038;48.208;16.308;2022-10-31T09:47:40;15.30;75.20
17827;DHT22;9038;48.208;16.308;2022-10-31T09:50:11;15.30;75.00
17827;DHT22;9038;48.208;16.308;2022-10-31T09:52:19;15.30;75.20
17827;DHT22;9038;48.208;16.308;2022-10-31T09:54:32;15.40;75.40
17827;DHT22;9038;48.208;16.308;2022-10-31T09:56:37;15.40;74.80
17827;DHT22;9038;48.208;16.308;2022-10-31T09:58:43;15.30;75.10
17827;DHT22;9038;48.208;16.308;2022-10-31T10:00:47;15.30;75.00
17827;DHT22;9038;48.208;16.308;2022-10-31T10:02:53;15.30;75.10
17827;DHT22;9038;48.208;16.308;2022-10-31T10:04:58;15.40;75.30
17827;DHT22;9038;48.208;16.308;2022-10-31T10:07:08;15.50;75.00
17827;DHT22;9038;48.208;16.308;2022-10-31T10:09:13;15.50;74.50
17827;DHT22;9038;48.208;16.308;2022-10-31T10:11:26;15.60;74.60
17827;DHT22;9038;48.208;16.308;2022-10-31T10:13:44;15.60;74.50
17827;DHT22;9038;48.208;16.308;2022-10-31T10:16:03;15.60;73.90
17827;DHT22;9038;48.208;16.308;2022-10-31T10:18:17;15.60;74.10
17827;DHT22;9038;48.208;16.308;2022-10-31T10:20:30;15.60;74.10
17827;DHT22;9038;48.208;16.308;2022-10-31T10:22:40;15.60;74.20
17827;DHT22;9038;48.208;16.308;2022-10-31T10:24:55;15.60;74.00
17827;DHT22;9038;48.208;16.308;2022-10-31T10:27:08;15.60;74.20
17827;DHT22;9038;48.208;16.308;2022-10-31T10:29:27;15.70;75.00
17827;DHT22;9038;48.208;16.308;2022-10-31T10:31:37;15.70;73.80
17827;DHT22;9038;48.208;16.308;2022-10-31T10:33:44;15.70;73.70
17827;DHT22;9038;48.208;16.308;2022-10-31T10:35:51;15.80;74.10
17827;DHT22;9038;48.208;16.308;2022-10-31T10:38:00;15.70;73.80
17827;DHT22;9038;48.208;16.308;2022-10-31T10:40:11;15.70;74.00
17827;DHT22;9038;48.208;16.308;2022-10-31T10:42:16;15.60;74.30
17827;DHT22;9038;48.208;16.308;2022-10-31T10:44:37;15.60;74.60
17827;DHT22;9038;48.208;16.308;2022-10-31T10:46:59;15.60;74.60
17827;DHT22;9038;48.208;16.308;2022-10-31T10:49:23;15.60;74.80
17827;DHT22;9038;48.208;16.308;2022-10-31T10:51:33;15.60;75.10
17827;DHT22;9038;48.208;16.308;2022-10-31T10:53:47;15.60;75.20
17827;DHT22;9038;48.208;16.308;2022-10-31T10:56:08;15.60;75.20
17827;DHT22;9038;48.208;16.308;2022-10-31T10:58:13;15.70;75.40
17827;DHT22;9038;48.208;16.308;2022-10-31T11:00:20;15.70;74.90
17827;DHT22;9038;48.208;16.308;2022-10-31T11:02:24;15.70;74.40
17827;DHT22;9038;48.208;16.308;2022-10-31T11:04:30;15.70;74.40
17827;DHT22;9038;48.208;16.308;2022-10-31T11:06:32;15.70;74.70
17827;DHT22;9038;48.208;16.308;2022-10-31T11:08:35;15.80;74.60
17827;DHT22;9038;48.208;16.308;2022-10-31T11:10:39;15.70;74.60
17827;DHT22;9038;48.208;16.308;2022-10-31T11:12:42;15.70;74.60
17827;DHT22;9038;48.208;16.308;2022-10-31T11:14:47;15.70;74.70
17827;DHT22;9038;48.208;16.308;2022-10-31T11:16:51;15.70;74.70
17827;DHT22;9038;48.208;16.308;2022-10-31T11:18:54;15.60;74.80
17827;DHT22;9038;48.208;16.308;2022-10-31T11:21:21;15.60;75.40
17827;DHT22;9038;48.208;16.308;2022-10-31T11:23:24;15.50;75.50
17827;DHT22;9038;48.208;16.308;2022-10-31T11:25:27;15.40;75.90
17827;DHT22;9038;48.208;16.308;2022-10-31T11:27:30;15.30;76.20
17827;DHT22;9038;48.208;16.308;2022-10-31T11:29:32;15.30;76.60
17827;DHT22;9038;48.208;16.308;2022-10-31T11:31:34;15.30;76.70
17827;DHT22;9038;48.208;16.308;2022-10-31T11:33:39;15.30;76.20
17827;DHT22;9038;48.208;16.308;2022-10-31T11:35:42;15.40;76.20
17827;DHT22;9038;48.208;16.308;2022-10-31T11:37:46;15.40;76.10
17827;DHT22;9038;48.208;16.308;2022-10-31T11:39:50;15.50;76.10
17827;DHT22;9038;48.208;16.308;2022-10-31T11:41:59;15.50;76.10
17827;DHT22;9038;48.208;16.308;2022-10-31T11:44:05;15.50;76.10
17827;DHT22;9038;48.208;16.308;2022-10-31T11:46:17;15.50;75.90
17827;DHT22;9038;48.208;16.308;2022-10-31T11:48:23;15.60;75.60
17827;DHT22;9038;48.208;16.308;2022-10-31T11:50:36;15.70;75.60
17827;DHT22;9038;48.208;16.308;2022-10-31T11:52:40;15.70;75.00
17827;DHT22;9038;48.208;16.308;2022-10-31T11:54:45;15.60;75.00
17827;DHT22;9038;48.208;16.308;2022-10-31T11:56:49;15.50;75.30
17827;DHT22;9038;48.208;16.308;2022-10-31T11:58:58;15.50;75.20
17827;DHT22;9038;48.208;16.308;2022-10-31T12:01:02;15.30;75.30
17827;DHT22;9038;48.208;16.308;2022-10-31T12:03:11;15.30;75.90
17827;DHT22;9038;48.208;16.308;2022-10-31T12:05:18;15.10;76.10
17827;DHT22;9038;48.208;16.308;2022-10-31T12:07:22;15.10;76.60
17827;DHT22;9038;48.208;16.308;2022-10-31T12:09:26;15.00;76.80
17827;DHT22;9038;48.208;16.308;2022-10-31T12:12:06;15.00;77.00
17827;DHT22;9038;48.208;16.308;2022-10-31T12:14:19;15.00;76.80
17827;DHT22;9038;48.208;16.308;2022-10-31T12:16:29;15.10;77.00
17827;DHT22;9038;48.208;16.308;2022-10-31T12:18:47;15.20;76.60
17827;DHT22;9038;48.208;16.308;2022-10-31T12:21:12;15.20;76.20
17827;DHT22;9038;48.208;16.308;2022-10-31T12:23:30;15.20;76.50
17827;DHT22;9038;48.208;16.308;2022-10-31T12:25:40;15.30;76.20
17827;DHT22;9038;48.208;16.308;2022-10-31T12:30:25;15.40;75.50
17827;DHT22;9038;48.208;16.308;2022-10-31T12:32:39;15.20;76.10
17827;DHT22;9038;48.208;16.308;2022-10-31T12:34:52;15.20;76.10
17827;DHT22;9038;48.208;16.308;2022-10-31T12:37:00;15.20;76.40
17827;DHT22;9038;48.208;16.308;2022-10-31T12:39:30;15.20;76.40
17827;DHT22;9038;48.208;16.308;2022-10-31T12:41:44;15.30;76.30
17827;DHT22;9038;48.208;16.308;2022-10-31T12:43:53;15.20;76.40
17827;DHT22;9038;48.208;16.308;2022-10-31T12:45:59;15.20;76.80
17827;DHT22;9038;48.208;16.308;2022-10-31T12:48:16;15.20;77.00
17827;DHT22;9038;48.208;16.308;2022-10-31T12:50:29;15.20;77.10
17827;DHT22;9038;48.208;16.308;2022-10-31T12:52:48;15.20;77.10
17827;DHT22;9038;48.208;16.308;2022-10-31T12:55:04;15.20;77.00
17827;DHT22;9038;48.208;16.308;2022-10-31T12:57:14;15.20;77.00
17827;DHT22;9038;48.208;16.308;2022-10-31T12:59:27;15.10;77.10
17827;DHT22;9038;48.208;16.308;2022-10-31T13:01:33;14.90;77.50
17827;DHT22;9038;48.208;16.308;2022-10-31T13:03:44;14.80;77.70
17827;DHT22;9038;48.208;16.308;2022-10-31T13:05:51;14.80;77.70
17827;DHT22;9038;48.208;16.308;2022-10-31T13:07:57;14.80;77.80
17827;DHT22;9038;48.208;16.308;2022-10-31T13:10:07;14.90;77.90
17827;DHT22;9038;48.208;16.308;2022-10-31T13:12:14;14.90;77.80
17827;DHT22;9038;48.208;16.308;2022-10-31T13:14:24;14.90;77.80